Utica, NY

8:32 PM EDT on March 26, 2015 (GMT -0400)
Syracuse Hancock International | | Change Station
CLOSE
Current Station
Airport
Location: Syracuse,
Elevation: 420 ft
Nearby Weather Stations

Elev 420 ft 43.11 °N, 76.10 °W | Updated 19 minutes ago

Ice Pellets
Ice Pellets
34 °F
Feels Like 31 °F
N
4
Wind Variable Wind from WNW

Today
High -- | Low -- °F
--% Chance of Precip.
Yesterday
High -- | Low -- °F
Precip. -- in
6:53 AM 7:20 PM
Waxing Crescent, 47% visible
Pressure 29.79 in
Visibility 6.0 miles
Clouds Mostly Cloudy 500 ft
Overcast 1400 ft
Windchill 31 °F
Dew Point 33 °F
Humidity 96%
Rainfall 0.36 in
Snow Depth Not available.
UV 0 out of 12
Pollen .60 out of 12
Air Quality Not available.
Flu Activity Not available.
SPECI KSYR 270013Z 30003KT 6SM -SN BR BKN005 OVC014 01/01 A2979 RMK AO2 P0000 T00110006

More Conditions Fewer Conditions

Pressure 29.79 in
Visibility 6.0 miles
Clouds Mostly Cloudy 500 ft
Overcast 1400 ft
Windchill 31 °F
Dew Point 33 °F
Humidity 96%
Rainfall 0.36 in
Snow Depth Not available.
UV 0 out of 12
Pollen .60 out of 12
Air Quality Not available.
Flu Activity Not available.
SPECI KSYR 270013Z 30003KT 6SM -SN BR BKN005 OVC014 01/01 A2979 RMK AO2 P0000 T00110006

More Conditions Fewer Conditions

10-Day Weather Forecast

Almanac

Astronomy

Mar. 26, 2015 Rise Set
Actual Time
Civil Twilight
Nautical Twilight
Astronomical Twilight
Moon
Length of Visible Light
Length of Day
Tomorrow will be .
, % of the Moon is Illuminated

Today's Extremes

State Highs State Lows

Community

WunderPhotos

Upload Photos

1,808,654 photos uploaded!

WunderBlogs® & News

Nearby

Air Quality

  Air Quality AQ Index Pollutant
Not available.

Snow Depth

Station Depth Elevation

Earthquake Activity

City Distance Mag. Time & Date
Minimum magnitude displayed is 2.5.

Coastal Water Temperatures

Place Temperature

Stations

Nearby Weather Stations

Station Location Temp. Windchill Dew Point Humidity Wind Precip. Elev Updated Type